Terminal Aerodrome Forecast
Issued by NWS

Home | Current Version | Previous Version | Text Only | Print | Product List | Glossary On
Versions: 1 2 3 4 5 6 7 8 9 10 11 12 13 14 15 16 17 18 19 20 21 22 23 24 25 26 27 28 29 30 31 32 33
000
FTAK31 PAFA 050520
TAFAOM
TAF
PAOM 050520Z 0506/0606 10005KT P6SM VCSH OVC008
     FM050900 08006KT 5SM BR VCSH OVC008
     FM051200 07006KT 1 1/2SM -SN BR OVC007
     FM060000 32005KT P6SM SCT007 BKN025 OVC050
     FM060400 32004KT P6SM SCT025 OVC050=

USA.gov is the U.S. government's official web portal to all federal, state and local government web resources and services.